Mariq — SVA2152 — position and weather

sailwx.info

Track history (hours):
 
Tides and Currents Weather Stations Pressure Air Temp Water Temp Dewpoint Dewpoint Depression Visibility Wind Speed Wind Dir Waves Ship Positions

Mariq

Last reported at 2016-Aug-24 18:20 UTC. Time now 2016-Aug-24 19:44 UTC.
Position N 37°22' E 025°55'.

Length 57 m.

Type: Tanker. MMSI: 239758424.

Date/timePositionNaut miles runAvg speedWind from/ knotsBaromVisibWave heightAir tempDewpointWater temp
2016-Aug-24 18:20N 37°22' E 025°55'15 8.0
2016-Aug-24 16:27N 37°23' E 025°36'7 8.0
2016-Aug-24 15:34N 37°24' E 025°27'8 8.1
2016-Aug-24 14:34N 37°22' E 025°17'8 7.7
2016-Aug-24 13:33N 37°21' E 025°07'8 7.6
2016-Aug-24 12:33N 37°20' E 024°58'7 7.3
2016-Aug-24 11:33N 37°22' E 024°49'4 0.2
2016-Aug-23 12:20N 37°23' E 024°44'810.1
2016-Aug-23 11:33N 37°20' E 024°53'1010.4
2016-Aug-23 10:33N 37°18' E 025°06'10 9.7
2016-Aug-23 09:34N 37°18' E 025°18'10 9.6
2016-Aug-23 08:33N 37°17' E 025°30'10 9.6
2016-Aug-23 07:28N 37°17' E 025°43'  
Track history (hours):
 
Tides and Currents Weather Stations Pressure Air Temp Water Temp Dewpoint Dewpoint Depression Visibility Wind Speed Wind Dir Waves Ship Positions

Mariq

Last reported at 2016-Aug-24 18:20 UTC. Time now 2016-Aug-24 19:44 UTC.
Position N 37°22' E 025°55'.

Length 57 m.

Type: Tanker. MMSI: 239758424.

Date/timePositionNaut miles runAvg speedWind from/ knotsBaromVisibWave heightAir tempDewpointWater temp
2016-Aug-24 18:20N 37°22' E 025°55'15 8.0
2016-Aug-24 16:27N 37°23' E 025°36'7 8.0
2016-Aug-24 15:34N 37°24' E 025°27'8 8.1
2016-Aug-24 14:34N 37°22' E 025°17'8 7.7
2016-Aug-24 13:33N 37°21' E 025°07'8 7.6
2016-Aug-24 12:33N 37°20' E 024°58'7 7.3
2016-Aug-24 11:33N 37°22' E 024°49'4 0.2
2016-Aug-23 12:20N 37°23' E 024°44'810.1
2016-Aug-23 11:33N 37°20' E 024°53'1010.4
2016-Aug-23 10:33N 37°18' E 025°06'10 9.7
2016-Aug-23 09:34N 37°18' E 025°18'10 9.6
2016-Aug-23 08:33N 37°17' E 025°30'10 9.6
2016-Aug-23 07:28N 37°17' E 025°43'  

Dump ship's entire track history